createdAt,value
2019-04-26T00:01:48.949Z,99.90
2019-04-26T00:04:18.775Z,99.90
2019-04-26T00:06:49.112Z,99.90
2019-04-26T00:09:20.391Z,99.90
2019-04-26T00:11:51.661Z,99.90
2019-04-26T00:14:22.861Z,99.90
2019-04-26T00:16:54.095Z,99.90
2019-04-26T00:19:23.913Z,99.90
2019-04-26T00:21:54.177Z,99.90
2019-04-26T00:24:24.172Z,99.90
2019-04-26T00:26:53.749Z,99.90
2019-04-26T00:29:23.261Z,99.90
2019-04-26T00:31:52.886Z,99.90
2019-04-26T00:34:22.663Z,99.90
2019-04-26T00:36:52.182Z,99.90
2019-04-26T00:39:24.144Z,99.90
2019-04-26T00:41:52.943Z,99.90
2019-04-26T00:44:22.868Z,99.90
2019-04-26T00:46:55.079Z,99.90
2019-04-26T00:49:24.961Z,99.90
2019-04-26T00:51:55.991Z,99.90
2019-04-26T00:54:26.487Z,99.90
2019-04-26T00:56:56.564Z,99.90
2019-04-26T00:59:26.840Z,99.90
2019-04-26T01:01:58.135Z,99.90
2019-04-26T01:04:27.583Z,99.90
2019-04-26T01:06:58.635Z,99.90
2019-04-26T01:09:28.214Z,99.90
2019-04-26T01:11:57.860Z,99.90
2019-04-26T01:14:27.493Z,99.90
2019-04-26T01:16:56.945Z,99.90
2019-04-26T01:19:27.219Z,99.90
2019-04-26T01:22:00.817Z,99.90
2019-04-26T01:24:33.414Z,99.90
2019-04-26T01:27:04.911Z,99.90
2019-04-26T01:29:36.718Z,99.90
2019-04-26T01:32:09.390Z,99.90
2019-04-26T01:34:41.620Z,99.90
2019-04-26T01:37:11.826Z,99.90
2019-04-26T01:39:45.939Z,99.90
2019-04-26T01:42:20.878Z,99.90
2019-04-26T01:44:54.763Z,99.90
2019-04-26T01:47:24.795Z,99.90
2019-04-26T01:49:54.844Z,99.90
2019-04-26T01:52:25.647Z,99.90
2019-04-26T01:54:55.468Z,99.90
2019-04-26T01:57:28.037Z,99.90
2019-04-26T01:59:59.401Z,99.90
2019-04-26T02:02:30.625Z,99.90
2019-04-26T02:05:01.882Z,99.90
2019-04-26T02:07:33.682Z,99.90
2019-04-26T02:10:03.268Z,99.90
2019-04-26T02:12:33.132Z,99.90
2019-04-26T02:15:02.797Z,99.90
2019-04-26T02:17:33.592Z,99.90
2019-04-26T02:20:06.690Z,99.90
2019-04-26T02:22:40.047Z,99.90
2019-04-26T02:25:10.019Z,99.90
2019-04-26T02:27:39.778Z,99.90
2019-04-26T02:30:09.617Z,99.90
2019-04-26T02:32:40.400Z,99.90
2019-04-26T02:35:11.576Z,99.90
2019-04-26T02:37:41.580Z,99.90
2019-04-26T02:40:14.253Z,99.90
2019-04-26T02:42:45.022Z,99.90
2019-04-26T02:45:19.294Z,99.90
2019-04-26T02:47:52.636Z,99.90
2019-04-26T02:50:28.337Z,99.90
2019-04-26T02:53:00.588Z,99.90
2019-04-26T02:55:36.961Z,99.90
2019-04-26T02:58:05.143Z,99.90
2019-04-26T03:00:35.876Z,99.90
2019-04-26T03:03:07.827Z,99.90
2019-04-26T03:05:40.840Z,99.90
2019-04-26T03:08:13.441Z,99.90
2019-04-26T03:10:45.997Z,99.90
2019-04-26T03:13:19.181Z,99.90
2019-04-26T03:15:52.787Z,99.90
2019-04-26T03:18:26.979Z,99.90
2019-04-26T03:20:59.443Z,99.90
2019-04-26T07:54:14.085Z,92.00
2019-04-26T07:56:46.633Z,90.00
2019-04-26T07:59:17.243Z,90.30
2019-04-26T08:01:49.493Z,88.60
2019-04-26T08:04:23.811Z,88.00
2019-04-26T08:06:56.362Z,87.10
2019-04-26T08:09:28.238Z,87.30
2019-04-26T08:12:00.856Z,87.40
2019-04-26T08:14:35.343Z,86.40
2019-04-26T08:17:10.460Z,89.80
2019-04-26T08:19:43.186Z,90.20
2019-04-26T08:22:21.740Z,90.00
2019-04-26T08:24:49.545Z,89.20
2019-04-26T08:27:23.961Z,87.60
2019-04-26T08:29:56.435Z,84.20
2019-04-26T08:32:32.027Z,85.90
2019-04-26T08:35:08.151Z,83.70
2019-04-26T08:37:38.165Z,84.30
2019-04-26T08:40:09.704Z,88.70
2019-04-26T08:42:41.835Z,85.50
2019-04-26T08:45:16.722Z,86.60
2019-04-26T08:47:51.073Z,84.40
2019-04-26T08:50:23.665Z,84.40
2019-04-26T08:52:57.826Z,85.40
2019-04-26T08:55:29.126Z,81.70
2019-04-26T08:58:01.788Z,83.40
2019-04-26T09:00:36.029Z,79.00
2019-04-26T09:03:11.581Z,80.00
2019-04-26T09:05:45.704Z,81.00
2019-04-26T09:08:16.831Z,77.50
2019-04-26T09:10:48.705Z,76.10
2019-04-26T09:13:20.145Z,74.00
2019-04-26T09:15:52.697Z,79.10
2019-04-26T09:18:22.332Z,81.40
2019-04-26T09:20:51.799Z,75.50
2019-04-26T09:23:22.892Z,74.90
2019-04-26T09:25:59.261Z,74.30
2019-04-26T09:28:26.974Z,69.10
2019-04-26T09:30:58.701Z,66.70
2019-04-26T09:33:31.707Z,67.10
2019-04-26T09:36:01.042Z,68.00
2019-04-26T09:38:30.602Z,71.30
2019-04-26T09:41:00.629Z,72.30
2019-04-26T09:43:32.053Z,71.40
2019-04-26T09:46:03.189Z,70.90
2019-04-26T09:48:36.640Z,67.80
2019-04-26T09:51:07.511Z,68.40
2019-04-26T09:53:39.573Z,66.90
2019-04-26T09:56:08.380Z,64.40
2019-04-26T09:58:37.985Z,63.40
2019-04-26T10:01:07.596Z,66.60
2019-04-26T10:03:37.025Z,73.40
2019-04-26T10:06:08.209Z,65.80
2019-04-26T10:08:39.177Z,69.50
2019-04-26T10:11:10.879Z,68.30
2019-04-26T10:13:43.074Z,67.40
2019-04-26T10:16:15.368Z,66.60
2019-04-26T10:18:46.503Z,63.30
2019-04-26T10:21:16.121Z,68.60
2019-04-26T10:23:45.614Z,64.10
2019-04-26T10:26:15.236Z,66.00
2019-04-26T10:28:46.733Z,65.80
2019-04-26T10:31:17.183Z,62.40
2019-04-26T10:33:46.892Z,61.90
2019-04-26T10:36:16.386Z,62.40
2019-04-26T10:38:45.931Z,60.10
2019-04-26T10:41:15.544Z,63.70
2019-04-26T10:43:45.090Z,63.10
2019-04-26T10:46:14.703Z,67.40
2019-04-26T10:48:45.544Z,63.70
2019-04-26T10:51:17.176Z,66.10
2019-04-26T10:53:50.407Z,67.60
2019-04-26T10:56:24.206Z,60.00
2019-04-26T10:58:54.346Z,66.00
2019-04-26T11:01:25.383Z,62.50
2019-04-26T11:03:54.838Z,65.70
2019-04-26T11:06:27.949Z,64.30
2019-04-26T11:08:55.752Z,60.90
2019-04-26T11:11:25.234Z,65.50
2019-04-26T11:13:57.430Z,67.30
2019-04-26T11:16:26.421Z,65.60
2019-04-26T11:18:57.199Z,65.80
2019-04-26T11:21:27.478Z,63.50
2019-04-26T11:23:56.988Z,63.90
2019-04-26T11:26:27.537Z,61.90
2019-04-26T11:28:57.237Z,63.70
2019-04-26T11:31:27.818Z,61.10
2019-04-26T11:34:05.095Z,63.50
2019-04-26T11:36:29.725Z,67.80
2019-04-26T11:39:01.370Z,61.80
2019-04-26T11:41:33.976Z,64.40
2019-04-26T11:44:05.372Z,62.60
2019-04-26T11:46:44.192Z,62.40
2019-04-26T11:49:07.148Z,64.60
2019-04-26T11:51:37.128Z,61.10
2019-04-26T11:54:06.741Z,60.10
2019-04-26T11:56:37.569Z,59.90
2019-04-26T11:59:07.521Z,61.70
2019-04-26T12:01:40.493Z,58.80
2019-04-26T12:04:09.322Z,62.90
2019-04-26T12:06:40.532Z,62.80
2019-04-26T12:09:12.027Z,57.80
2019-04-26T12:11:49.285Z,57.70
2019-04-26T12:14:20.074Z,63.20
2019-04-26T12:17:04.489Z,58.00
2019-04-26T12:19:35.114Z,54.20
2019-04-26T12:22:08.359Z,54.70
2019-04-26T12:24:36.229Z,53.80
2019-04-26T12:27:06.043Z,58.00
2019-04-26T12:29:35.679Z,58.30
2019-04-26T12:32:05.415Z,53.60
2019-04-26T12:34:34.956Z,56.70
2019-04-26T12:37:04.670Z,55.70
2019-04-26T12:39:36.633Z,58.00
2019-04-26T12:42:08.205Z,52.70
2019-04-26T12:44:41.138Z,54.60
2019-04-26T12:47:11.455Z,54.20
2019-04-26T12:49:41.065Z,54.20
2019-04-26T12:52:10.786Z,54.10
2019-04-26T12:54:42.953Z,53.60
2019-04-26T12:57:16.165Z,54.40
2019-04-26T12:59:44.821Z,57.50
2019-04-26T13:02:16.522Z,58.70
2019-04-26T13:04:45.466Z,57.00
2019-04-26T13:07:23.487Z,52.30
2019-04-26T13:09:50.079Z,55.50
2019-04-26T13:12:21.181Z,56.00
2019-04-26T13:14:52.340Z,55.40
2019-04-26T13:17:23.521Z,54.00
2019-04-26T13:19:53.882Z,57.20
2019-04-26T13:22:24.147Z,55.10
2019-04-26T13:24:54.091Z,52.90
2019-04-26T13:27:23.616Z,54.70
2019-04-26T13:30:01.808Z,54.60
2019-04-26T13:32:24.253Z,52.50
2019-04-26T13:34:53.662Z,54.60
2019-04-26T13:37:23.263Z,55.20
2019-04-26T13:39:55.276Z,57.20
2019-04-26T13:42:24.336Z,54.70
2019-04-26T13:44:55.449Z,56.60
2019-04-26T13:47:26.829Z,60.60
2019-04-26T13:49:58.025Z,59.50
2019-04-26T13:52:27.444Z,57.40
2019-04-26T13:54:56.834Z,57.70
2019-04-26T13:57:26.405Z,56.90
2019-04-26T13:59:55.863Z,55.10
2019-04-26T14:02:25.373Z,55.00
2019-04-26T14:04:54.993Z,56.00
2019-04-26T14:07:25.920Z,56.60
2019-04-26T14:09:55.713Z,59.30
2019-04-26T14:12:25.391Z,55.70
2019-04-26T14:14:54.850Z,53.80
2019-04-26T14:17:29.820Z,54.40
2019-04-26T14:19:57.987Z,55.40
2019-04-26T14:22:29.208Z,58.50
2019-04-26T14:25:00.242Z,54.10
2019-04-26T14:27:33.092Z,51.90
2019-04-26T14:30:06.485Z,49.10
2019-04-26T14:32:34.197Z,53.20
2019-04-26T14:35:04.363Z,52.40
2019-04-26T14:37:33.755Z,52.70
2019-04-26T14:40:16.560Z,48.80
2019-04-26T14:42:41.940Z,49.20
2019-04-26T14:45:07.571Z,48.70
2019-04-26T14:47:47.272Z,52.80
2019-04-26T14:50:14.811Z,50.40
2019-04-26T14:52:39.974Z,52.10
2019-04-26T14:55:09.576Z,55.00
2019-04-26T14:57:39.000Z,52.10
2019-04-26T15:00:10.383Z,52.20
2019-04-26T15:02:47.226Z,49.90
2019-04-26T15:05:14.913Z,48.70
2019-04-26T15:07:50.959Z,52.40
2019-04-26T15:10:16.604Z,49.00
2019-04-26T15:12:48.717Z,48.90
2019-04-26T15:15:17.345Z,48.60
2019-04-26T15:17:46.862Z,49.40
2019-04-26T15:20:20.794Z,49.10
2019-04-26T15:22:50.136Z,50.60
2019-04-26T15:25:19.817Z,50.10
2019-04-26T15:27:49.371Z,48.80
2019-04-26T15:30:18.852Z,50.20
2019-04-26T15:32:48.454Z,50.70
2019-04-26T15:35:18.197Z,52.70
2019-04-26T15:37:47.800Z,51.30
2019-04-26T15:40:19.377Z,48.70
2019-04-26T15:43:01.155Z,49.90
2019-04-26T15:45:25.171Z,51.10
2019-04-26T15:47:56.173Z,48.80
2019-04-26T15:50:27.280Z,48.70
2019-04-26T15:52:56.695Z,52.10
2019-04-26T15:55:26.157Z,50.90
2019-04-26T15:57:55.596Z,50.90
2019-04-26T16:00:28.436Z,51.60
2019-04-26T16:02:58.664Z,52.30
2019-04-26T16:05:29.637Z,51.70
2019-04-26T16:08:03.271Z,51.30
2019-04-26T16:10:34.739Z,51.20
2019-04-26T16:13:16.180Z,50.30
2019-04-26T16:15:33.608Z,49.20
2019-04-26T16:18:04.161Z,52.10
2019-04-26T16:20:37.694Z,51.20
2019-04-26T16:23:07.327Z,51.60
2019-04-26T16:25:38.245Z,51.80
2019-04-26T16:28:09.396Z,51.60
2019-04-26T16:30:40.692Z,52.00
2019-04-26T16:33:13.414Z,51.10
2019-04-26T16:35:43.214Z,52.10
2019-04-26T16:38:19.754Z,52.00
2019-04-26T16:40:50.768Z,52.10
2019-04-26T16:43:34.893Z,51.40
2019-04-26T16:45:48.824Z,50.90
2019-04-26T16:48:24.333Z,51.00
2019-04-26T16:50:49.410Z,51.50
2019-04-26T16:53:42.587Z,51.00
2019-04-26T16:56:09.317Z,51.00
2019-04-26T16:58:45.023Z,51.50
2019-04-26T17:01:12.384Z,50.90
2019-04-26T17:03:45.182Z,51.40
2019-04-26T17:06:14.292Z,52.40
2019-04-26T17:08:49.932Z,56.00
2019-04-26T17:11:15.164Z,59.50
2019-04-26T17:13:51.253Z,64.90
2019-04-26T17:16:16.082Z,57.80
2019-04-26T17:18:45.543Z,56.40
2019-04-26T17:21:17.527Z,58.10
2019-04-26T17:23:49.639Z,59.00
2019-04-26T17:26:22.359Z,57.80
2019-04-26T17:28:53.143Z,59.50
2019-04-26T17:31:23.365Z,58.50
2019-04-26T17:33:52.928Z,59.30
2019-04-26T17:36:22.504Z,62.50
2019-04-26T17:38:51.962Z,63.50
2019-04-26T17:41:21.413Z,65.80
2019-04-26T17:43:56.088Z,66.40
2019-04-26T17:46:22.137Z,67.10
2019-04-26T17:48:51.701Z,69.90
2019-04-26T17:51:23.170Z,70.90
2019-04-26T17:54:20.337Z,69.50
2019-04-26T17:56:26.080Z,71.50
2019-04-26T17:58:55.858Z,74.40
2019-04-26T18:01:41.870Z,74.80
2019-04-26T18:03:57.955Z,75.10
2019-04-26T18:06:29.845Z,78.10
2019-04-26T18:08:58.642Z,77.70
2019-04-26T18:11:28.156Z,80.40
2019-04-26T18:13:57.760Z,82.70
2019-04-26T18:16:29.514Z,84.70
2019-04-26T18:19:02.476Z,86.30
2019-04-26T18:21:33.504Z,88.10
2019-04-26T18:24:03.095Z,87.30
2019-04-26T18:26:33.684Z,87.60
2019-04-26T18:29:03.855Z,88.00
2019-04-26T18:31:34.018Z,89.20
2019-04-26T18:34:04.140Z,89.00
2019-04-26T18:36:33.944Z,89.00
2019-04-26T18:39:05.568Z,89.30
2019-04-26T18:41:36.745Z,88.10
2019-04-26T18:44:06.434Z,88.60
2019-04-26T18:46:40.384Z,87.90
2019-04-26T18:49:11.445Z,88.40
2019-04-26T18:51:41.900Z,90.40
2019-04-26T18:54:14.532Z,90.10
2019-04-26T18:56:43.622Z,91.00
2019-04-26T18:59:15.433Z,90.40
2019-04-26T19:01:44.359Z,91.10
2019-04-26T19:04:15.520Z,91.10
2019-04-26T19:06:45.241Z,92.20
2019-04-26T19:09:17.231Z,91.40
2019-04-26T19:11:48.478Z,91.80
2019-04-26T19:14:19.708Z,92.10
2019-04-26T19:16:56.742Z,92.00
2019-04-26T19:19:25.953Z,91.80
2019-04-26T19:21:56.659Z,92.30
2019-04-26T19:24:26.274Z,92.40
2019-04-26T19:26:55.790Z,93.20
2019-04-26T19:29:31.366Z,93.90
2019-04-26T19:32:01.533Z,94.00
2019-04-26T19:34:30.203Z,93.90
2019-04-26T19:37:01.530Z,93.60
2019-04-26T19:39:35.465Z,94.00
2019-04-26T19:42:06.244Z,93.90
2019-04-26T19:44:36.139Z,93.60
2019-04-26T19:47:07.428Z,93.70
2019-04-26T19:49:38.720Z,93.00
2019-04-26T19:52:11.621Z,92.80
2019-04-26T19:54:42.927Z,93.00
2019-04-26T19:57:14.195Z,94.40
2019-04-26T19:59:43.611Z,95.50
2019-04-26T20:02:13.229Z,96.10
2019-04-26T20:04:42.827Z,96.60
2019-04-26T20:07:12.267Z,96.90
2019-04-26T20:09:42.012Z,96.30
2019-04-26T20:12:12.478Z,96.10
2019-04-26T20:14:49.224Z,95.40
2019-04-26T20:17:19.873Z,95.60
2019-04-26T20:19:47.803Z,95.80
2019-04-26T20:22:15.489Z,96.00
2019-04-26T20:24:48.730Z,96.40
2019-04-26T20:27:20.508Z,96.40
2019-04-26T20:29:47.867Z,97.00
2019-04-26T20:32:23.810Z,97.70
2019-04-26T20:34:53.884Z,98.00
2019-04-26T20:37:25.822Z,98.10
2019-04-26T20:40:15.319Z,98.30
2019-04-26T20:42:25.698Z,97.90
2019-04-26T20:44:55.172Z,97.00
2019-04-26T20:47:24.582Z,94.60
2019-04-26T20:50:00.806Z,96.50
2019-04-26T20:52:25.208Z,97.00
2019-04-26T20:54:54.724Z,97.20
2019-04-26T20:57:26.683Z,98.20
2019-04-26T21:00:01.602Z,96.90
2019-04-26T21:02:26.401Z,97.60
2019-04-26T21:04:55.915Z,97.60
2019-04-26T21:07:25.407Z,98.10
2019-04-26T21:09:54.915Z,98.50
2019-04-26T21:12:24.499Z,98.50
2019-04-26T21:14:53.922Z,99.40
2019-04-26T21:17:27.611Z,99.10
2019-04-26T21:19:58.403Z,98.90
2019-04-26T21:22:28.722Z,99.10
2019-04-26T21:24:58.763Z,98.60
2019-04-26T21:27:31.778Z,99.00
2019-04-26T21:30:03.433Z,99.10
2019-04-26T21:32:37.686Z,99.20
2019-04-26T21:35:09.144Z,99.10
2019-04-26T21:37:40.256Z,99.20
2019-04-26T21:40:11.561Z,99.40
2019-04-26T21:42:43.339Z,98.70
2019-04-26T21:45:12.350Z,98.90
2019-04-26T21:47:43.493Z,99.00
2019-04-26T21:50:14.742Z,99.10
2019-04-26T21:52:45.672Z,99.40
2019-04-26T21:55:16.751Z,99.90
2019-04-26T21:57:46.338Z,99.70
2019-04-26T22:00:20.413Z,99.90
2019-04-26T22:02:53.242Z,99.90
2019-04-26T22:05:23.142Z,99.90
2019-04-26T22:07:53.495Z,99.90
2019-04-26T22:10:24.815Z,99.90
2019-04-26T22:12:54.422Z,99.90
2019-04-26T22:15:29.413Z,99.90
2019-04-26T22:17:58.397Z,99.90
2019-04-26T22:20:29.597Z,99.90
2019-04-26T22:23:00.646Z,99.90
2019-04-26T22:25:33.156Z,99.90
2019-04-26T22:28:03.385Z,99.90
2019-04-26T22:30:33.263Z,99.90
2019-04-26T22:33:03.148Z,99.90
2019-04-26T22:35:32.864Z,99.90
2019-04-26T22:38:04.015Z,99.90
2019-04-26T22:40:33.667Z,99.90
2019-04-26T22:43:05.305Z,99.90
2019-04-26T22:45:39.509Z,99.90
2019-04-26T22:48:11.508Z,99.90
2019-04-26T22:50:40.700Z,99.90
2019-04-26T22:53:11.934Z,99.90
2019-04-26T22:55:43.456Z,99.90
2019-04-26T22:58:13.431Z,99.90
2019-04-26T23:00:43.784Z,99.90
2019-04-26T23:03:14.126Z,99.90
2019-04-26T23:05:43.613Z,99.90
2019-04-26T23:08:14.053Z,99.90
2019-04-26T23:10:46.659Z,99.90
2019-04-26T23:13:17.777Z,99.90
2019-04-26T23:15:48.945Z,99.90
2019-04-26T23:18:21.469Z,99.90
2019-04-26T23:20:53.324Z,99.90
2019-04-26T23:23:23.643Z,99.90
2019-04-26T23:25:53.471Z,99.90
2019-04-26T23:28:27.638Z,99.90
2019-04-26T23:30:55.285Z,99.90
2019-04-26T23:33:24.767Z,99.90
2019-04-26T23:35:54.554Z,99.90
2019-04-26T23:38:24.574Z,99.90
2019-04-26T23:41:01.052Z,99.90
2019-04-26T23:43:29.210Z,99.90
2019-04-26T23:45:58.652Z,99.90
2019-04-26T23:48:28.130Z,99.90
2019-04-26T23:50:59.916Z,99.90
2019-04-26T23:53:28.713Z,99.90
2019-04-26T23:55:58.245Z,99.90
2019-04-26T23:58:27.741Z,99.90
